createdAt,value
2022-08-28T00:00:14.091Z,55.72
2022-08-28T00:01:19.326Z,55.74
2022-08-28T00:02:23.615Z,56.00
2022-08-28T00:03:26.198Z,55.72
2022-08-28T00:04:28.066Z,55.62
2022-08-28T00:05:32.618Z,56.03
2022-08-28T00:06:34.222Z,55.96
2022-08-28T00:07:37.152Z,56.00
2022-08-28T00:08:38.793Z,56.35
2022-08-28T00:09:41.366Z,56.10
2022-08-28T00:10:44.017Z,55.85
2022-08-28T00:11:48.280Z,55.87
2022-08-28T00:12:51.610Z,55.90
2022-08-28T00:13:54.193Z,56.46
2022-08-28T00:14:58.420Z,56.25
2022-08-28T00:16:02.385Z,56.39
2022-08-28T00:17:04.255Z,56.07
2022-08-28T00:18:08.451Z,56.46
2022-08-28T00:19:10.895Z,56.28
2022-08-28T00:20:15.884Z,56.53
2022-08-28T00:21:18.282Z,56.31
2022-08-28T00:22:20.947Z,56.26
2022-08-28T00:23:25.305Z,56.60
2022-08-28T00:24:32.917Z,56.61
2022-08-28T00:25:37.424Z,56.55
2022-08-28T00:26:57.841Z,56.59
2022-08-28T00:28:05.444Z,56.24
2022-08-28T00:29:10.975Z,56.64
2022-08-28T00:30:12.958Z,56.55
2022-08-28T00:31:17.247Z,56.55
2022-08-28T00:32:22.693Z,56.15
2022-08-28T00:33:28.166Z,56.41
2022-08-28T00:34:33.308Z,56.27
2022-08-28T00:35:36.468Z,56.41
2022-08-28T00:36:39.068Z,56.27
2022-08-28T00:37:41.678Z,56.41
2022-08-28T00:38:43.387Z,56.09
2022-08-28T00:39:46.358Z,56.29
2022-08-28T00:40:52.298Z,56.04
2022-08-28T00:41:57.168Z,56.30
2022-08-28T00:43:01.495Z,55.98
2022-08-28T00:44:11.586Z,56.08
2022-08-28T00:45:13.895Z,56.02
2022-08-28T00:46:20.216Z,56.10
2022-08-28T00:47:26.233Z,55.95
2022-08-28T00:48:29.095Z,56.11
2022-08-28T00:49:35.884Z,55.91
2022-08-28T00:50:52.435Z,55.95
2022-08-28T00:52:15.197Z,55.74
2022-08-28T00:53:17.003Z,56.23
2022-08-28T00:54:19.370Z,56.03
2022-08-28T00:55:25.477Z,55.95
2022-08-28T00:56:28.494Z,56.38
2022-08-28T00:57:34.999Z,55.87
2022-08-28T00:58:36.933Z,56.03
2022-08-28T00:59:39.683Z,55.66
2022-08-28T01:00:41.882Z,56.29
2022-08-28T01:01:48.179Z,55.82
2022-08-28T01:02:50.018Z,55.94
2022-08-28T01:03:53.856Z,56.00
2022-08-28T01:04:55.759Z,55.87
2022-08-28T01:05:58.588Z,56.00
2022-08-28T01:07:06.105Z,56.18
2022-08-28T01:08:08.665Z,56.16
2022-08-28T01:09:12.111Z,56.26
2022-08-28T01:10:19.092Z,56.49
2022-08-28T01:11:20.861Z,56.34
2022-08-28T01:12:26.464Z,56.34
2022-08-28T01:13:29.480Z,56.58
2022-08-28T01:14:34.398Z,56.59
2022-08-28T01:15:38.087Z,56.03
2022-08-28T01:16:42.702Z,56.37
2022-08-28T01:17:48.996Z,56.14
2022-08-28T01:18:53.477Z,56.35
2022-08-28T01:20:02.969Z,56.58
2022-08-28T01:21:10.588Z,56.05
2022-08-28T01:22:23.357Z,56.37
2022-08-28T01:23:38.861Z,56.24
2022-08-28T01:24:42.604Z,56.63
2022-08-28T01:25:44.496Z,56.34
2022-08-28T01:26:47.176Z,56.48
2022-08-28T01:27:48.778Z,56.58
2022-08-28T01:28:52.151Z,56.59
2022-08-28T01:29:54.090Z,56.40
2022-08-28T01:30:56.815Z,56.33
2022-08-28T01:31:59.472Z,56.40
2022-08-28T01:33:02.399Z,56.56
2022-08-28T01:34:05.901Z,56.61
2022-08-28T01:35:12.484Z,56.84
2022-08-28T01:36:15.865Z,56.80
2022-08-28T01:37:18.406Z,56.51
2022-08-28T01:38:21.999Z,56.65
2022-08-28T01:39:31.047Z,56.85
2022-08-28T01:40:36.348Z,56.76
2022-08-28T01:41:40.567Z,56.75
2022-08-28T01:42:43.717Z,56.42
2022-08-28T01:43:47.038Z,56.54
2022-08-28T01:44:50.107Z,56.42
2022-08-28T01:45:54.658Z,56.81
2022-08-28T01:46:59.550Z,56.32
2022-08-28T01:48:01.114Z,56.78
2022-08-28T01:49:05.913Z,56.51
2022-08-28T01:50:10.077Z,56.56
2022-08-28T01:51:14.403Z,56.79
2022-08-28T01:52:16.101Z,56.47
2022-08-28T01:53:21.991Z,56.94
2022-08-28T01:54:28.009Z,56.85
2022-08-28T01:55:32.886Z,57.03
2022-08-28T01:56:35.047Z,56.58
2022-08-28T01:57:44.004Z,57.06
2022-08-28T01:58:47.988Z,56.85
2022-08-28T01:59:49.812Z,56.92
2022-08-28T02:00:53.608Z,57.13
2022-08-28T02:01:55.607Z,57.01
2022-08-28T02:03:00.804Z,57.55
2022-08-28T02:04:04.310Z,57.20
2022-08-28T02:05:08.125Z,57.45
2022-08-28T02:06:10.449Z,57.63
2022-08-28T02:07:13.132Z,57.60
2022-08-28T02:08:15.004Z,57.91
2022-08-28T02:09:17.807Z,57.25
2022-08-28T02:10:24.232Z,57.84
2022-08-28T02:11:30.523Z,57.81
2022-08-28T02:12:32.425Z,57.66
2022-08-28T02:13:36.778Z,57.66
2022-08-28T02:14:40.235Z,57.99
2022-08-28T02:15:42.432Z,57.78
2022-08-28T02:16:45.119Z,57.86
2022-08-28T02:17:46.801Z,58.01
2022-08-28T02:18:49.937Z,57.78
2022-08-28T02:19:51.731Z,57.70
2022-08-28T02:20:54.299Z,57.99
2022-08-28T02:21:56.107Z,57.58
2022-08-28T02:22:59.053Z,58.18
2022-08-28T02:24:01.875Z,57.89
2022-08-28T02:25:04.916Z,57.97
2022-08-28T02:26:08.120Z,57.80
2022-08-28T02:27:11.152Z,57.46
2022-08-28T02:28:14.220Z,57.68
2022-08-28T02:29:17.173Z,58.15
2022-08-28T02:30:20.195Z,57.93
2022-08-28T02:31:22.890Z,58.02
2022-08-28T02:32:24.798Z,57.66
2022-08-28T02:33:27.523Z,58.35
2022-08-28T02:34:29.244Z,57.93
2022-08-28T02:35:32.104Z,58.10
2022-08-28T02:36:34.759Z,58.33
2022-08-28T02:37:37.021Z,58.37
2022-08-28T02:38:40.002Z,58.28
2022-08-28T02:39:41.615Z,58.05
2022-08-28T02:40:44.908Z,58.12
2022-08-28T02:41:46.566Z,58.47
2022-08-28T02:42:52.745Z,58.51
2022-08-28T02:43:55.301Z,58.34
2022-08-28T02:44:56.932Z,58.56
2022-08-28T02:45:59.592Z,58.54
2022-08-28T02:47:01.232Z,58.48
2022-08-28T02:48:04.895Z,58.81
2022-08-28T02:49:17.659Z,58.41
2022-08-28T02:50:21.283Z,58.54
2022-08-28T02:51:23.135Z,58.88
2022-08-28T02:52:30.003Z,58.93
2022-08-28T02:53:34.085Z,58.73
2022-08-28T02:54:37.090Z,58.65
2022-08-28T02:55:39.826Z,58.96
2022-08-28T02:56:41.642Z,58.75
2022-08-28T02:57:44.550Z,58.61
2022-08-28T02:58:48.726Z,58.99
2022-08-28T02:59:50.325Z,58.92
2022-08-28T03:00:52.920Z,58.70
2022-08-28T03:01:54.691Z,58.96
2022-08-28T03:02:57.352Z,59.13
2022-08-28T03:03:59.148Z,59.14
2022-08-28T03:05:01.742Z,59.00
2022-08-28T03:06:04.630Z,59.18
2022-08-28T03:07:09.926Z,59.54
2022-08-28T03:08:13.121Z,59.36
2022-08-28T03:09:15.823Z,59.26
2022-08-28T03:10:18.263Z,58.95
2022-08-28T03:11:20.842Z,59.20
2022-08-28T03:12:24.068Z,59.39
2022-08-28T03:13:27.375Z,59.45
2022-08-28T03:14:30.917Z,59.64
2022-08-28T03:15:33.479Z,59.62
2022-08-28T03:16:35.183Z,59.27
2022-08-28T03:17:38.249Z,59.54
2022-08-28T03:18:41.400Z,59.57
2022-08-28T03:19:43.991Z,59.66
2022-08-28T03:20:47.519Z,59.52
2022-08-28T03:21:50.253Z,59.55
2022-08-28T03:23:12.930Z,59.60
2022-08-28T03:24:15.792Z,59.94
2022-08-28T03:25:18.517Z,59.75
2022-08-28T03:26:21.588Z,60.01
2022-08-28T03:27:23.302Z,59.78
2022-08-28T03:28:27.239Z,59.61
2022-08-28T03:29:30.504Z,59.94
2022-08-28T03:30:33.139Z,60.09
2022-08-28T03:31:36.106Z,59.89
2022-08-28T03:32:38.716Z,59.65
2022-08-28T03:33:42.551Z,59.67
2022-08-28T03:34:45.345Z,59.82
2022-08-28T03:35:47.703Z,60.05
2022-08-28T03:36:50.367Z,59.74
2022-08-28T03:37:52.066Z,59.85
2022-08-28T03:38:57.406Z,60.04
2022-08-28T03:40:00.084Z,59.82
2022-08-28T03:41:03.523Z,59.85
2022-08-28T03:42:06.030Z,59.83
2022-08-28T03:43:11.445Z,60.03
2022-08-28T03:44:13.047Z,59.97
2022-08-28T03:45:17.402Z,59.95
2022-08-28T03:46:23.511Z,59.72
2022-08-28T03:47:28.237Z,59.88
2022-08-28T03:48:34.576Z,60.16
2022-08-28T03:49:36.288Z,60.11
2022-08-28T03:50:41.585Z,59.96
2022-08-28T03:51:43.793Z,60.18
2022-08-28T03:52:46.385Z,59.92
2022-08-28T03:53:48.528Z,59.89
2022-08-28T03:54:51.327Z,60.03
2022-08-28T03:55:53.559Z,59.95
2022-08-28T03:56:56.145Z,60.09
2022-08-28T03:57:57.945Z,60.24
2022-08-28T03:59:02.521Z,60.51
2022-08-28T04:00:07.342Z,60.29
2022-08-28T04:01:13.575Z,60.08
2022-08-28T04:02:18.613Z,60.34
2022-08-28T04:03:21.394Z,60.68
2022-08-28T04:04:23.039Z,60.34
2022-08-28T04:05:25.685Z,60.65
2022-08-28T04:06:27.976Z,60.84
2022-08-28T04:07:30.582Z,60.59
2022-08-28T04:08:33.208Z,60.88
2022-08-28T04:09:34.893Z,60.98
2022-08-28T04:10:37.502Z,60.78
2022-08-28T04:11:42.402Z,60.89
2022-08-28T04:12:45.026Z,60.75
2022-08-28T04:13:46.736Z,60.78
2022-08-28T04:14:49.258Z,61.27
2022-08-28T04:15:59.475Z,61.10
2022-08-28T04:17:02.587Z,61.04
2022-08-28T04:18:05.546Z,61.05
2022-08-28T04:19:07.243Z,61.46
2022-08-28T04:20:11.056Z,61.17
2022-08-28T04:21:16.290Z,61.34
2022-08-28T04:22:18.899Z,61.19
2022-08-28T04:23:20.596Z,61.35
2022-08-28T04:24:23.225Z,61.17
2022-08-28T04:25:25.964Z,61.52
2022-08-28T04:26:27.851Z,61.38
2022-08-28T04:27:30.399Z,61.40
2022-08-28T04:28:32.547Z,61.68
2022-08-28T04:29:35.180Z,61.27
2022-08-28T04:30:36.813Z,61.23
2022-08-28T04:31:39.928Z,61.16
2022-08-28T04:32:42.900Z,61.54
2022-08-28T04:33:47.805Z,61.29
2022-08-28T04:34:49.779Z,61.63
2022-08-28T04:35:52.484Z,61.18
2022-08-28T04:36:54.381Z,61.21
2022-08-28T04:37:58.954Z,61.40
2022-08-28T04:39:01.684Z,61.18
2022-08-28T04:40:05.653Z,61.59
2022-08-28T04:41:08.615Z,61.34
2022-08-28T04:42:15.074Z,61.89
2022-08-28T04:43:16.870Z,61.33
2022-08-28T04:44:20.359Z,61.54
2022-08-28T04:45:22.308Z,61.70
2022-08-28T04:46:26.049Z,61.40
2022-08-28T04:47:27.972Z,61.51
2022-08-28T04:48:32.169Z,61.63
2022-08-28T04:49:33.759Z,61.19
2022-08-28T04:50:40.695Z,61.32
2022-08-28T04:51:42.444Z,61.40
2022-08-28T04:52:45.018Z,61.33
2022-08-28T04:53:46.836Z,61.62
2022-08-28T04:54:49.760Z,61.80
2022-08-28T04:55:54.243Z,61.56
2022-08-28T04:56:57.727Z,61.21
2022-08-28T04:57:59.484Z,61.47
2022-08-28T04:59:03.635Z,61.50
2022-08-28T05:00:08.857Z,61.36
2022-08-28T05:01:19.578Z,61.45
2022-08-28T05:02:21.297Z,61.67
2022-08-28T05:03:24.904Z,61.23
2022-08-28T05:04:28.876Z,61.44
2022-08-28T05:05:30.541Z,61.50
2022-08-28T05:06:34.675Z,61.73
2022-08-28T05:07:36.325Z,61.58
2022-08-28T05:08:38.949Z,61.64
2022-08-28T05:09:40.523Z,61.49
2022-08-28T05:10:43.642Z,61.31
2022-08-28T05:11:46.708Z,61.27
2022-08-28T05:12:50.152Z,61.62
2022-08-28T05:13:52.775Z,61.19
2022-08-28T05:14:58.946Z,61.20
2022-08-28T05:16:03.836Z,61.86
2022-08-28T05:17:06.523Z,61.37
2022-08-28T05:18:08.691Z,61.42
2022-08-28T05:19:12.133Z,61.43
2022-08-28T05:20:15.144Z,61.54
2022-08-28T05:21:22.941Z,61.33
2022-08-28T05:22:24.578Z,61.60
2022-08-28T05:23:27.490Z,61.69
2022-08-28T05:24:29.164Z,61.41
2022-08-28T05:25:32.800Z,61.86
2022-08-28T05:26:35.307Z,61.53
2022-08-28T05:27:41.708Z,61.71
2022-08-28T05:28:43.731Z,61.39
2022-08-28T05:29:47.009Z,61.18
2022-08-28T05:30:48.624Z,61.30
2022-08-28T05:31:52.022Z,61.62
2022-08-28T05:32:53.991Z,61.53
2022-08-28T05:33:57.262Z,61.87
2022-08-28T05:34:58.986Z,61.47
2022-08-28T05:36:06.061Z,61.25
2022-08-28T05:37:09.410Z,61.58
2022-08-28T05:38:13.172Z,61.07
2022-08-28T05:39:16.017Z,61.35
2022-08-28T05:40:18.580Z,61.36
2022-08-28T05:41:22.619Z,61.70
2022-08-28T05:42:24.274Z,61.34
2022-08-28T05:43:33.731Z,61.11
2022-08-28T05:44:36.820Z,61.02
2022-08-28T05:45:38.602Z,61.26
2022-08-28T05:46:43.496Z,61.04
2022-08-28T05:47:45.214Z,60.97
2022-08-28T05:48:49.240Z,60.87
2022-08-28T05:49:52.335Z,61.05
2022-08-28T05:50:54.054Z,61.02
2022-08-28T05:51:58.403Z,60.83
2022-08-28T05:53:00.023Z,60.88
2022-08-28T05:54:03.611Z,60.94
2022-08-28T05:55:06.591Z,60.81
2022-08-28T05:56:09.737Z,61.15
2022-08-28T05:57:11.377Z,60.95
2022-08-28T05:58:30.611Z,60.81
2022-08-28T05:59:33.196Z,60.98
2022-08-28T06:00:34.894Z,60.63
2022-08-28T06:01:41.185Z,60.98
2022-08-28T06:02:44.343Z,60.62
2022-08-28T06:03:53.954Z,60.82
2022-08-28T06:04:57.661Z,60.55
2022-08-28T06:06:00.272Z,60.96
2022-08-28T06:07:06.273Z,60.88
2022-08-28T06:08:08.315Z,60.61
2022-08-28T06:09:13.528Z,60.33
2022-08-28T06:10:15.343Z,60.41
2022-08-28T06:11:21.016Z,60.48
2022-08-28T06:12:26.197Z,60.60
2022-08-28T06:13:29.320Z,60.39
2022-08-28T06:14:32.465Z,60.17
2022-08-28T06:15:35.954Z,60.26
2022-08-28T06:16:39.265Z,59.88
2022-08-28T06:17:42.086Z,60.25
2022-08-28T06:18:44.048Z,60.67
2022-08-28T06:19:46.665Z,60.40
2022-08-28T06:20:48.348Z,60.54
2022-08-28T06:21:54.572Z,60.25
2022-08-28T06:22:57.610Z,60.30
2022-08-28T06:24:00.525Z,60.34
2022-08-28T06:25:04.557Z,60.64
2022-08-28T06:26:10.057Z,60.44
2022-08-28T06:27:11.657Z,60.57
2022-08-28T06:28:16.520Z,60.69
2022-08-28T06:29:21.037Z,60.69
2022-08-28T06:30:23.875Z,60.84
2022-08-28T06:31:29.731Z,60.67
2022-08-28T06:32:35.891Z,60.80
2022-08-28T06:33:40.347Z,60.62
2022-08-28T06:34:43.089Z,60.50
2022-08-28T06:35:47.538Z,60.49
2022-08-28T06:36:53.807Z,60.73
2022-08-28T06:37:57.431Z,60.87
2022-08-28T06:39:00.805Z,61.11
2022-08-28T06:40:02.957Z,61.06
2022-08-28T06:41:09.914Z,60.92
2022-08-28T06:42:14.820Z,60.91
2022-08-28T06:43:18.176Z,60.64
2022-08-28T06:44:21.958Z,60.81
2022-08-28T06:45:23.779Z,60.66
2022-08-28T06:46:29.140Z,60.79
2022-08-28T06:47:30.771Z,60.99
2022-08-28T06:48:33.423Z,60.68
2022-08-28T06:49:35.542Z,60.90
2022-08-28T06:50:43.091Z,60.82
2022-08-28T06:51:44.867Z,60.45
2022-08-28T06:52:47.769Z,60.61
2022-08-28T06:53:50.963Z,60.83
2022-08-28T06:54:55.827Z,60.52
2022-08-28T06:56:06.399Z,60.44
2022-08-28T06:57:09.417Z,60.88
2022-08-28T06:58:12.478Z,60.69
2022-08-28T06:59:15.581Z,60.61
2022-08-28T07:00:18.119Z,60.59
2022-08-28T07:01:24.173Z,60.97
2022-08-28T07:02:28.385Z,60.41
2022-08-28T07:03:31.670Z,60.27
2022-08-28T07:04:34.500Z,60.79
2022-08-28T07:05:36.343Z,60.64
2022-08-28T07:06:41.532Z,60.53
2022-08-28T07:07:43.121Z,60.40
2022-08-28T07:08:45.943Z,60.54
2022-08-28T07:09:48.887Z,60.42
2022-08-28T07:10:51.826Z,60.35
2022-08-28T07:11:54.522Z,60.33
2022-08-28T07:12:56.295Z,60.29
2022-08-28T07:14:00.069Z,60.75
2022-08-28T07:15:03.651Z,60.49
2022-08-28T07:16:06.773Z,60.79
2022-08-28T07:17:08.704Z,60.70
2022-08-28T07:18:12.169Z,60.45
2022-08-28T07:19:14.971Z,60.37
2022-08-28T07:20:16.611Z,60.70
2022-08-28T07:21:20.357Z,60.64
2022-08-28T07:22:22.815Z,60.07
2022-08-28T07:23:25.987Z,60.31
2022-08-28T07:24:29.275Z,60.51
2022-08-28T07:25:32.239Z,60.01
2022-08-28T07:26:35.913Z,59.79
2022-08-28T07:27:38.286Z,60.08
2022-08-28T07:28:41.078Z,60.28
2022-08-28T07:29:42.765Z,59.88
2022-08-28T07:30:45.668Z,60.21
2022-08-28T07:31:50.190Z,59.81
2022-08-28T07:32:53.291Z,60.09
2022-08-28T07:33:57.004Z,60.18
2022-08-28T07:34:59.654Z,59.89
2022-08-28T07:36:03.757Z,59.82
2022-08-28T07:37:11.080Z,60.10
2022-08-28T07:38:16.904Z,59.99
2022-08-28T07:39:20.240Z,60.19
2022-08-28T07:40:22.751Z,60.14
2022-08-28T07:41:29.209Z,60.05
2022-08-28T07:42:50.062Z,59.91
2022-08-28T07:44:25.846Z,59.98
2022-08-28T07:45:29.923Z,59.89
2022-08-28T07:46:31.838Z,59.81
2022-08-28T07:47:34.584Z,59.88
2022-08-28T07:48:37.446Z,59.32
2022-08-28T07:49:40.639Z,59.55
2022-08-28T07:50:42.275Z,59.02
2022-08-28T07:51:46.953Z,58.97
2022-08-28T07:52:48.840Z,59.00
2022-08-28T07:53:52.201Z,58.60
2022-08-28T07:54:54.612Z,58.42
2022-08-28T07:55:57.522Z,58.46
2022-08-28T07:57:02.062Z,58.62
2022-08-28T07:58:05.709Z,58.47
2022-08-28T07:59:11.095Z,58.47
2022-08-28T08:00:13.757Z,58.20
2022-08-28T08:01:18.137Z,58.21
2022-08-28T08:02:20.746Z,57.62
2022-08-28T08:03:23.692Z,57.91
2022-08-28T08:04:25.885Z,57.48
2022-08-28T08:05:28.545Z,57.31
2022-08-28T08:06:34.122Z,57.21
2022-08-28T08:07:39.703Z,57.29
2022-08-28T08:08:45.257Z,57.25
2022-08-28T08:09:48.026Z,57.12
2022-08-28T08:10:59.102Z,56.71
2022-08-28T08:12:03.109Z,56.85
2022-08-28T08:13:05.059Z,56.65
2022-08-28T08:14:10.684Z,56.64
2022-08-28T08:15:13.213Z,56.70
2022-08-28T08:16:18.930Z,56.42
2022-08-28T08:17:21.027Z,56.39
2022-08-28T08:18:24.161Z,56.71
2022-08-28T08:19:25.865Z,56.24
2022-08-28T08:20:28.650Z,55.97
2022-08-28T08:21:31.041Z,56.13
2022-08-28T08:22:33.822Z,56.24
2022-08-28T08:23:36.415Z,56.36
2022-08-28T08:24:39.128Z,56.03
2022-08-28T08:25:41.194Z,55.81
2022-08-28T08:26:50.100Z,55.46
2022-08-28T08:28:05.383Z,55.04
2022-08-28T08:29:07.100Z,54.98
2022-08-28T08:30:11.621Z,54.83
2022-08-28T08:31:16.022Z,54.95
2022-08-28T08:32:18.881Z,54.64
2022-08-28T08:33:20.851Z,54.51
2022-08-28T08:34:23.479Z,54.96
2022-08-28T08:35:25.296Z,54.83
2022-08-28T08:36:28.714Z,54.67
2022-08-28T08:37:30.324Z,54.63
2022-08-28T08:38:37.834Z,55.07
2022-08-28T08:39:42.499Z,55.31
2022-08-28T08:40:45.498Z,55.33
2022-08-28T08:41:51.167Z,55.37
2022-08-28T08:42:56.954Z,55.10
2022-08-28T08:44:07.432Z,55.64
2022-08-28T08:45:13.624Z,55.30
2022-08-28T08:46:15.447Z,55.52
2022-08-28T08:47:22.451Z,55.64
2022-08-28T08:48:29.200Z,55.57
2022-08-28T08:49:35.970Z,55.44
2022-08-28T08:50:38.647Z,55.31
2022-08-28T08:51:42.987Z,55.77
2022-08-28T08:52:58.642Z,55.45
2022-08-28T08:54:04.306Z,55.67
2022-08-28T08:55:24.069Z,55.73
2022-08-28T08:56:35.019Z,55.43
2022-08-28T08:57:38.526Z,55.58
2022-08-28T08:58:44.411Z,55.26
2022-08-28T08:59:47.621Z,55.43
2022-08-28T09:01:15.249Z,55.62
2022-08-28T09:02:22.502Z,55.21
2022-08-28T09:03:50.456Z,55.44
2022-08-28T09:05:03.084Z,55.15
2022-08-28T09:06:07.860Z,55.18
2022-08-28T09:07:16.527Z,55.03
2022-08-28T09:08:34.946Z,54.93
2022-08-28T09:09:41.584Z,55.02
2022-08-28T09:10:54.564Z,54.99
2022-08-28T09:11:59.664Z,54.79
2022-08-28T09:13:11.909Z,54.67
2022-08-28T09:14:20.543Z,54.72
2022-08-28T09:15:30.919Z,54.43
2022-08-28T09:16:36.393Z,54.65
2022-08-28T09:17:42.518Z,54.56
2022-08-28T09:18:44.766Z,54.56
2022-08-28T09:19:47.577Z,54.28
2022-08-28T09:20:50.715Z,54.49
2022-08-28T09:21:54.348Z,54.49
2022-08-28T09:22:57.044Z,54.72
2022-08-28T09:24:05.917Z,54.28
2022-08-28T09:25:35.964Z,53.64
2022-08-28T09:26:38.988Z,53.76
2022-08-28T09:27:47.551Z,53.52
2022-08-28T09:29:01.049Z,53.31
2022-08-28T09:30:08.438Z,53.16
2022-08-28T09:31:15.609Z,53.40
2022-08-28T09:32:26.607Z,52.77
2022-08-28T09:33:31.003Z,53.02
2022-08-28T09:34:38.906Z,52.50
2022-08-28T09:35:41.645Z,52.82
2022-08-28T09:36:44.310Z,52.49
2022-08-28T09:37:45.961Z,52.80
2022-08-28T09:39:05.655Z,52.79
2022-08-28T09:40:17.910Z,52.77
2022-08-28T09:41:38.262Z,52.33
2022-08-28T09:42:57.785Z,52.54
2022-08-28T09:43:59.531Z,52.17
2022-08-28T09:45:14.314Z,52.16
2022-08-28T09:46:22.380Z,51.64
2022-08-28T09:47:48.736Z,51.87
2022-08-28T09:48:53.005Z,51.30
2022-08-28T09:49:54.696Z,51.10
2022-08-28T09:51:03.189Z,50.90
2022-08-28T09:52:23.151Z,51.23
2022-08-28T09:53:30.607Z,51.44
2022-08-28T09:54:36.368Z,51.35
2022-08-28T09:55:52.079Z,51.28
2022-08-28T09:56:55.582Z,51.31
2022-08-28T09:57:58.887Z,51.14
2022-08-28T09:59:05.610Z,51.22
2022-08-28T10:00:09.304Z,51.13
2022-08-28T10:01:30.925Z,51.58
2022-08-28T10:02:43.278Z,51.39
2022-08-28T10:03:52.918Z,51.04
2022-08-28T10:05:03.153Z,51.55
2022-08-28T10:06:16.265Z,51.04
2022-08-28T10:07:27.740Z,50.75
2022-08-28T10:08:47.834Z,50.83
2022-08-28T10:09:57.459Z,50.78
2022-08-28T10:11:18.495Z,50.53
2022-08-28T10:12:34.451Z,50.70
2022-08-28T10:13:48.353Z,50.79
2022-08-28T10:15:03.535Z,50.41
2022-08-28T10:16:19.125Z,50.55
2022-08-28T10:17:31.362Z,50.53
2022-08-28T10:18:40.006Z,50.59
2022-08-28T10:19:52.231Z,50.71
2022-08-28T10:21:04.617Z,50.87
2022-08-28T10:22:19.959Z,50.60
2022-08-28T10:23:31.518Z,50.23
2022-08-28T10:24:54.091Z,50.56
2022-08-28T10:26:08.026Z,50.33
2022-08-28T10:27:16.870Z,50.25
2022-08-28T10:28:36.706Z,50.26
2022-08-28T10:29:51.132Z,50.46
2022-08-28T10:31:03.392Z,50.21
2022-08-28T10:32:21.183Z,50.02
2022-08-28T10:33:36.581Z,49.79
2022-08-28T10:34:51.642Z,49.23
2022-08-28T10:36:00.873Z,48.94
2022-08-28T10:37:06.896Z,48.95
2022-08-28T10:38:13.569Z,48.66
2022-08-28T10:39:29.052Z,49.07
2022-08-28T10:40:36.743Z,49.04
2022-08-28T10:41:45.944Z,48.71
2022-08-28T10:42:55.084Z,48.63
2022-08-28T10:44:01.403Z,48.34
2022-08-28T10:45:08.546Z,47.88
2022-08-28T10:46:14.634Z,48.05
2022-08-28T10:47:20.731Z,48.02
2022-08-28T10:48:28.878Z,47.87
2022-08-28T10:49:36.750Z,47.75
2022-08-28T10:50:43.671Z,47.88
2022-08-28T10:51:50.110Z,47.91
2022-08-28T10:52:57.498Z,47.90
2022-08-28T10:54:04.116Z,48.10
2022-08-28T10:55:11.730Z,47.85
2022-08-28T10:56:18.422Z,48.23
2022-08-28T10:57:30.931Z,48.29
2022-08-28T10:58:39.189Z,48.16
2022-08-28T10:59:44.763Z,48.11
2022-08-28T11:00:48.103Z,48.29
2022-08-28T11:01:51.566Z,48.10
2022-08-28T11:02:57.588Z,48.32
2022-08-28T11:04:06.822Z,48.45
2022-08-28T11:05:10.615Z,48.54
2022-08-28T11:06:21.896Z,48.11
2022-08-28T11:07:33.729Z,48.21
2022-08-28T11:08:37.056Z,48.22
2022-08-28T11:09:45.986Z,48.19
2022-08-28T11:10:51.693Z,48.15
2022-08-28T11:12:01.004Z,48.03
2022-08-28T11:13:06.901Z,48.03
2022-08-28T11:14:09.906Z,47.84
2022-08-28T11:15:51.653Z,47.89
2022-08-28T11:16:58.275Z,47.61
2022-08-28T11:18:27.070Z,47.77
2022-08-28T11:20:04.492Z,47.63
2022-08-28T11:21:13.773Z,47.55
2022-08-28T11:22:20.296Z,47.15
2022-08-28T11:23:30.037Z,46.84
2022-08-28T11:24:44.373Z,46.79
2022-08-28T11:25:54.614Z,46.42
2022-08-28T11:27:05.465Z,46.43
2022-08-28T11:28:18.702Z,46.41
2022-08-28T11:29:58.039Z,46.61
2022-08-28T11:31:33.331Z,46.44
2022-08-28T11:32:46.986Z,46.38
2022-08-28T11:33:52.423Z,46.27
2022-08-28T11:34:58.004Z,46.30
2022-08-28T11:36:02.891Z,46.16
2022-08-28T11:37:04.579Z,46.15
2022-08-28T11:38:08.080Z,46.21
2022-08-28T11:39:20.523Z,46.11
2022-08-28T11:40:56.525Z,46.15
2022-08-28T11:42:35.233Z,46.09
2022-08-28T11:43:40.295Z,45.96
2022-08-28T11:44:46.462Z,45.70
2022-08-28T11:46:13.396Z,45.71
2022-08-28T11:47:45.719Z,45.52
2022-08-28T11:48:49.436Z,45.51
2022-08-28T11:49:52.775Z,45.43
2022-08-28T11:50:58.427Z,45.22
2022-08-28T11:52:07.963Z,45.24
2022-08-28T11:53:44.208Z,45.21
2022-08-28T11:54:51.305Z,45.33
2022-08-28T11:56:28.217Z,45.22
2022-08-28T11:57:49.637Z,45.09
2022-08-28T11:59:00.435Z,45.25
2022-08-28T12:00:10.406Z,45.04
2022-08-28T12:01:27.952Z,44.92
2022-08-28T12:03:09.588Z,44.92
2022-08-28T12:04:14.505Z,44.71
2022-08-28T12:05:41.019Z,45.01
2022-08-28T12:06:54.280Z,45.14
2022-08-28T12:08:00.451Z,45.04
2022-08-28T12:09:04.930Z,45.21
2022-08-28T12:10:52.685Z,44.99
2022-08-28T12:11:57.687Z,44.82
2022-08-28T12:13:02.172Z,44.75
2022-08-28T12:14:03.833Z,44.56
2022-08-28T12:15:09.690Z,44.63
2022-08-28T12:16:12.597Z,44.52
2022-08-28T12:17:30.500Z,44.44
2022-08-28T12:19:01.172Z,44.38
2022-08-28T12:20:09.055Z,44.15
2022-08-28T12:21:17.704Z,44.19
2022-08-28T12:22:22.588Z,44.15
2022-08-28T12:23:45.583Z,44.17
2022-08-28T12:24:50.682Z,44.11
2022-08-28T12:26:02.151Z,44.14
2022-08-28T12:27:04.338Z,44.17
2022-08-28T12:28:19.343Z,43.90
2022-08-28T12:29:32.660Z,44.17
2022-08-28T12:30:42.258Z,44.01
2022-08-28T12:32:15.186Z,43.92
2022-08-28T12:33:26.635Z,43.84
2022-08-28T12:34:38.239Z,43.48
2022-08-28T12:35:43.672Z,43.67
2022-08-28T12:36:48.968Z,43.59
2022-08-28T12:38:02.546Z,43.58
2022-08-28T12:39:05.601Z,43.26
2022-08-28T12:40:18.663Z,43.47
2022-08-28T12:41:24.423Z,43.50
2022-08-28T12:42:31.342Z,43.38
2022-08-28T12:43:46.285Z,43.37
2022-08-28T12:44:48.977Z,43.49
2022-08-28T12:45:54.747Z,43.12
2022-08-28T12:46:58.182Z,43.52
2022-08-28T12:48:05.326Z,43.38
2022-08-28T12:49:28.466Z,43.40
2022-08-28T12:50:34.684Z,43.17
2022-08-28T12:51:37.941Z,43.26
2022-08-28T12:52:49.614Z,42.93
2022-08-28T12:53:53.690Z,42.67
2022-08-28T12:54:58.103Z,43.02
2022-08-28T12:56:00.855Z,42.90
2022-08-28T12:57:05.277Z,42.60
2022-08-28T12:58:13.503Z,42.57
2022-08-28T12:59:27.521Z,42.53
2022-08-28T13:00:33.493Z,42.63
2022-08-28T13:01:35.462Z,42.45
2022-08-28T13:02:38.343Z,42.39
2022-08-28T13:04:27.629Z,42.52
2022-08-28T13:05:33.507Z,42.46
2022-08-28T13:06:38.682Z,43.16
2022-08-28T13:07:46.261Z,42.56
2022-08-28T13:08:49.962Z,42.54
2022-08-28T13:09:55.621Z,42.45
2022-08-28T13:11:03.021Z,42.37
2022-08-28T13:12:07.272Z,42.39
2022-08-28T13:13:19.161Z,42.07
2022-08-28T13:14:36.974Z,42.39
2022-08-28T13:15:45.776Z,42.21
2022-08-28T13:16:48.632Z,42.48
2022-08-28T13:17:52.778Z,41.97
2022-08-28T13:19:13.091Z,41.85
2022-08-28T13:20:26.181Z,41.85
2022-08-28T13:21:34.798Z,41.94
2022-08-28T13:22:40.017Z,42.10
2022-08-28T13:23:42.703Z,41.80
2022-08-28T13:24:47.740Z,41.63
2022-08-28T13:25:49.480Z,41.44
2022-08-28T13:27:03.244Z,41.45
2022-08-28T13:28:14.030Z,41.86
2022-08-28T13:29:19.732Z,41.41
2022-08-28T13:30:26.887Z,41.52
2022-08-28T13:31:32.130Z,41.37
2022-08-28T13:32:37.596Z,41.16
2022-08-28T13:33:39.306Z,41.29
2022-08-28T13:34:47.607Z,41.09
2022-08-28T13:35:51.190Z,41.07
2022-08-28T13:36:57.932Z,41.12
2022-08-28T13:38:01.012Z,40.91
2022-08-28T13:39:03.645Z,41.24
2022-08-28T13:40:11.269Z,41.03
2022-08-28T13:41:22.510Z,41.09
2022-08-28T13:42:27.837Z,41.46
2022-08-28T13:43:44.433Z,41.13
2022-08-28T13:44:48.738Z,40.86
2022-08-28T13:45:52.573Z,41.13
2022-08-28T13:46:54.367Z,40.75
2022-08-28T13:47:56.930Z,41.00
2022-08-28T13:48:58.649Z,40.79
2022-08-28T13:50:01.391Z,40.76
2022-08-28T13:51:05.099Z,40.66
2022-08-28T13:52:11.300Z,40.74
2022-08-28T13:53:13.299Z,40.94
2022-08-28T13:54:16.253Z,40.82
2022-08-28T13:55:18.172Z,40.79
2022-08-28T13:56:23.035Z,40.95
2022-08-28T13:57:27.781Z,40.47
2022-08-28T13:58:30.358Z,40.66
2022-08-28T13:59:32.431Z,41.16
2022-08-28T14:00:40.974Z,40.94
2022-08-28T14:02:02.223Z,40.83
2022-08-28T14:03:22.468Z,40.54
2022-08-28T14:04:25.107Z,40.75
2022-08-28T14:05:28.092Z,40.11
2022-08-28T14:06:31.809Z,40.19
2022-08-28T14:07:34.713Z,40.60
2022-08-28T14:08:36.307Z,39.97
2022-08-28T14:09:39.839Z,40.42
2022-08-28T14:10:41.852Z,40.32
2022-08-28T14:11:44.932Z,40.41